Beersheba, Israel
Current Conditions -  °F | °C
As of 7:50 PM on Friday 28 Nov 2014 (Local Time) from LLBG Reporting Station
Broken Clouds Broken Clouds  
Wind Chill: 17°   Ceiling: 3500
Heat Index: 17°   Visibility: 6mi
Dew Point: 12°   Wind: 3mph
Humidity: 72%   Direction: NA
Pressure: 30.24"   Gusts: NA
Location:  31.25°N, 34.8°E
Report Text: LLBG 281650Z VRB03KT 9999 BKN035 17/12 Q1024 NOSIG
Loading
Personal Weather Stations






























Interactive Weather Map New forecast layout! Learn more

10-Day Weather Forecast

Advertisements
Track Severe Weather on mobile